Date,TemperatureHighF,TemperatureAvgF,TemperatureLowF,DewpointHighF,DewpointAvgF,DewpointLowF,HumidityHigh,HumidityAvg,HumidityLow,PressureMaxIn,PressureMinIn,WindSpeedMaxMPH,WindSpeedAvgMPH,GustSpeedMaxMPH,PrecipitationSumIn
2014-2-1,59.0,39.9,21.3,40.2,25.3,17.8,90,61,23,30.21,30.04,2,0,5,0.00
2014-2-2,65.0,50.3,39.5,46.0,42.1,36.8,97,76,47,30.04,29.95,2,0,7,0.00
2014-2-3,61.5,49.8,40.6,59.9,46.0,35.2,98,87,77,30.22,29.81,5,1,16,0.14
2014-2-4,40.6,39.0,37.3,38.2,35.5,33.3,96,87,80,30.36,30.05,5,1,11,0.39
2014-2-5,52.8,43.0,38.2,48.9,40.3,29.3,98,91,60,30.05,29.72,6,0,14,0.09
2014-2-6,42.9,37.8,30.7,30.1,24.7,21.1,75,60,44,30.27,30.03,3,0,12,0.00
2014-2-7,51.6,40.3,32.4,32.3,28.8,26.9,85,65,40,30.30,30.19,3,0,8,0.00
2014-2-8,49.6,38.0,31.5,31.1,28.9,26.4,89,72,45,30.24,30.06,3,0,7,0.00
2014-2-9,48.2,33.8,28.2,33.7,29.3,25.9,96,85,57,30.13,30.00,1,0,3,0.00
2014-2-10,41.3,35.9,32.4,35.9,31.5,26.5,95,85,57,30.20,29.95,3,0,11,0.09
2014-2-11,35.0,31.6,25.6,33.6,22.3,15.7,95,70,51,30.36,30.19,4,1,10,0.02
2014-2-12,28.8,25.3,23.2,27.5,17.7,11.3,95,74,50,30.39,29.77,4,1,12,0.00
2014-2-13,34.7,32.1,28.8,33.9,31.1,27.5,100,96,95,29.76,29.37,2,0,5,0.18
2014-2-14,59.5,41.8,28.8,34.2,29.0,19.8,96,67,22,29.74,29.60,3,0,7,0.99
2014-2-15,45.7,38.2,29.8,39.6,28.7,-99.9,98,73,32,30.00,29.49,11,2,31,0.94
2014-2-16,52.5,38.5,29.4,30.4,24.2,16.6,84,58,34,30.12,29.95,2,0,7,0.02
2014-2-17,47.0,35.6,26.4,26.3,23.0,19.8,91,63,35,30.35,30.12,5,1,11,0.00
2014-2-18,65.2,47.0,36.6,34.9,27.2,16.8,78,52,16,30.16,30.03,5,0,13,0.00
2014-2-19,71.8,55.0,37.3,59.8,49.2,28.1,98,82,55,30.03,29.81,3,0,13,0.37
2014-2-20,71.5,57.9,44.9,60.2,47.5,36.4,96,71,42,30.15,29.91,3,0,16,0.00
2014-2-21,72.3,60.1,38.9,62.6,54.7,36.8,95,83,67,29.97,29.71,6,1,17,0.34
2014-2-22,64.7,45.9,32.5,41.9,32.2,23.1,98,67,22,30.14,29.98,1,0,2,0.00
2014-2-23,68.8,50.5,31.0,41.3,35.1,29.1,97,61,28,30.06,29.81,3,0,7,0.00
2014-2-24,61.5,49.9,35.9,41.6,26.7,15.3,83,45,19,30.09,29.80,7,1,19,0.00
2014-2-25,52.6,38.5,27.2,27.0,22.8,15.6,87,57,26,30.08,29.91,3,0,10,0.00
2014-2-26,49.8,38.4,29.5,29.3,23.9,19.4,80,58,32,29.93,29.73,4,0,11,0.00
2014-2-27,55.0,37.5,21.3,24.7,14.9,6.0,89,46,16,29.96,29.68,4,0,12,0.00
2014-2-28,45.2,35.1,27.3,15.8,12.0,7.5,54,39,25,30.29,29.96,5,1,10,0.00